Date,TemperatureHighF,TemperatureAvgF,TemperatureLowF,DewpointHighF,DewpointAvgF,DewpointLowF,HumidityHigh,HumidityAvg,HumidityLow,PressureMaxIn,PressureMinIn,WindSpeedMaxMPH,WindSpeedAvgMPH,GustSpeedMaxMPH,PrecipitationSumIn
2012-1-1,54.6,46.5,34.8,45.9,38.3,26.6,95,74,49,30.10,29.68,24,4,27,0.00
2012-1-2,44.0,34.5,28.0,28.7,20.2,14.1,66,56,42,29.94,29.82,26,4,26,0.00
2012-1-3,28.2,24.3,15.0,21.4,11.4,-1.9,84,58,37,30.27,29.93,31,8,31,0.00
2012-1-4,29.2,20.7,10.5,17.9,9.9,-1.6,77,63,49,30.30,29.97,13,1,15,0.00
2012-1-5,44.7,34.1,23.0,28.0,23.2,16.0,85,65,48,30.02,29.92,16,1,16,0.00
2012-1-6,62.9,45.4,32.4,37.8,30.4,23.2,72,57,38,29.92,29.77,11,2,11,0.00
2012-1-7,63.8,50.0,40.2,45.9,32.7,26.6,66,52,41,30.06,29.75,18,2,21,0.00
2012-1-8,45.6,38.4,27.5,33.0,27.9,21.9,83,66,53,30.33,30.05,13,1,14,0.00
2012-1-9,37.9,30.9,25.6,30.6,26.1,21.8,92,83,64,30.32,30.02,13,1,16,0.00
2012-1-10,52.4,37.6,27.5,36.7,30.4,25.7,97,78,47,30.03,29.95,11,1,11,0.00
2012-1-11,43.3,35.3,25.5,42.2,33.3,23.5,96,92,81,30.02,29.56,12,0,12,0.89
2012-1-12,55.7,46.5,38.9,48.5,43.5,38.0,98,90,76,29.57,29.30,15,2,21,0.16
2012-1-13,51.4,31.6,25.6,46.5,20.4,12.9,92,63,51,29.95,29.28,29,5,32,0.23
2012-1-14,32.9,27.4,22.1,18.4,15.7,13.7,73,61,52,30.15,29.94,16,3,17,0.00
2012-1-15,32.0,25.1,19.7,16.4,13.4,9.8,76,61,41,30.57,30.15,12,2,13,0.00
2012-1-16,40.2,30.5,18.1,34.0,21.2,12.5,85,69,55,30.56,30.08,19,4,23,0.08
2012-1-17,57.0,47.1,37.9,47.2,40.8,33.9,94,79,63,30.09,29.62,22,3,22,0.14
2012-1-18,54.0,34.6,20.0,42.0,21.8,14.2,81,60,46,30.18,29.70,28,6,28,0.00
2012-1-19,36.6,27.7,15.4,25.6,18.1,12.7,90,69,51,30.19,29.88,17,2,17,0.00
2012-1-20,35.7,28.5,22.0,28.9,15.8,8.9,89,59,46,30.29,29.95,16,3,18,0.00
2012-1-21,30.7,27.9,25.3,27.2,25.5,22.8,95,91,86,30.31,29.94,9,2,10,0.00
2012-1-22,30.6,27.8,25.1,27.8,24.8,22.0,94,88,80,30.45,30.30,6,0,6,0.00
2012-1-23,42.6,35.8,29.3,41.4,34.7,27.8,98,96,94,30.33,29.83,15,2,17,0.47
2012-1-24,53.9,42.7,29.8,41.7,35.5,29.0,98,78,53,30.22,29.87,14,1,14,0.00
2012-1-25,46.3,39.6,33.4,35.4,31.6,28.0,82,73,61,30.35,30.14,13,1,14,0.00
2012-1-26,42.4,39.8,38.0,40.7,36.8,33.2,97,89,78,30.17,29.68,6,0,8,0.19
2012-1-27,58.6,45.4,39.0,55.6,39.1,28.7,100,80,60,29.99,29.43,26,5,31,0.24
2012-1-28,52.3,40.3,31.6,36.7,28.0,13.2,92,63,37,30.17,29.88,23,2,23,0.00
2012-1-29,45.2,37.1,30.1,31.7,18.6,12.5,87,48,36,30.25,29.98,20,3,23,0.01
2012-1-30,43.3,35.9,26.4,25.0,20.3,15.7,72,54,38,30.38,30.16,19,2,22,0.00
2012-1-31,65.8,50.4,37.5,37.2,31.0,22.5,63,48,31,30.19,30.00,14,2,15,0.00
2012-2-1,63.1,54.4,45.4,49.8,40.8,32.1,84,61,46,30.02,29.95,15,2,19,0.00
2012-2-2,52.4,44.4,38.9,42.0,36.6,28.1,92,75,53,30.33,29.94,27,4,27,0.00
2012-2-3,47.7,38.0,28.7,33.2,28.9,23.8,86,70,54,30.51,30.32,11,1,12,0.00
2012-2-4,42.4,33.5,28.6,34.7,30.4,25.7,96,89,65,30.34,30.10,5,0,6,0.12
2012-2-5,41.8,34.5,29.7,35.4,31.6,27.4,98,90,64,30.22,30.07,7,0,8,0.23
2012-2-6,50.2,37.0,26.4,35.6,29.4,25.2,96,76,46,30.24,30.03,11,1,12,0.00
2012-2-7,52.2,39.0,27.8,35.0,29.5,25.0,91,71,44,30.23,30.06,12,2,17,0.00
2012-2-8,36.2,31.8,28.1,32.0,29.4,25.1,96,91,76,30.24,30.11,3,0,6,0.06
2012-2-9,43.8,33.8,24.9,31.1,24.6,21.1,96,71,43,30.26,30.15,15,2,16,0.11
2012-2-10,41.6,32.4,23.0,32.0,26.4,20.4,98,80,57,30.18,29.90,9,0,10,0.00
2012-2-11,36.6,30.0,19.9,33.9,25.5,11.4,97,84,57,29.95,29.64,29,5,32,0.19
2012-2-12,27.9,23.8,19.8,15.8,12.2,9.5,68,61,54,30.14,29.95,29,8,29,0.00
2012-2-13,45.2,33.1,22.5,23.4,18.8,13.6,72,57,39,30.20,30.05,16,2,22,0.00
2012-2-14,49.4,39.5,31.0,33.2,27.1,22.6,83,62,41,30.08,29.91,9,1,9,0.00
2012-2-15,49.5,41.4,35.0,34.5,32.5,29.7,87,72,51,30.26,30.01,17,2,18,0.00
2012-2-16,45.2,41.6,35.2,41.8,37.6,30.6,93,86,74,30.25,29.97,16,2,18,0.20
2012-2-17,50.9,43.7,33.2,41.1,32.8,26.3,96,68,42,30.11,29.97,16,2,16,0.00
2012-2-18,59.6,41.9,26.2,34.0,28.4,22.7,92,62,35,30.09,29.83,21,3,22,0.00
2012-2-19,43.4,36.4,29.3,28.1,25.4,22.7,82,65,51,30.10,29.90,10,1,10,0.00
2012-2-20,46.8,36.5,29.2,25.6,22.8,20.9,72,58,38,30.33,29.97,15,4,15,0.00
2012-2-21,48.0,38.9,26.3,34.5,28.5,20.5,85,67,56,30.31,29.81,22,4,24,0.00
2012-2-22,60.4,49.9,36.5,42.5,36.0,31.0,86,61,37,29.83,29.43,18,3,21,0.00
2012-2-23,61.4,53.5,44.7,42.5,38.0,33.4,79,57,37,29.62,29.41,16,2,19,0.00
2012-2-24,55.0,45.5,41.1,48.0,40.2,27.9,97,83,48,29.65,29.35,29,3,29,0.38
2012-2-25,41.0,36.8,33.4,28.8,22.2,18.1,79,55,46,30.25,29.64,32,8,32,0.00
2012-2-26,45.8,37.5,30.7,26.1,21.9,19.2,64,53,40,30.46,30.25,17,2,19,0.00
2012-2-27,63.9,48.6,29.8,37.2,28.8,20.5,71,48,32,30.35,30.09,23,3,23,0.00
2012-2-28,51.1,42.7,32.4,29.2,25.8,22.5,68,52,38,30.47,30.26,23,3,23,0.00
2012-2-29,44.6,41.9,37.8,43.8,37.2,26.2,98,85,49,30.26,29.61,14,2,15,1.48
2012-3-1,60.9,47.5,35.7,46.9,37.5,30.2,99,72,45,29.96,29.58,23,4,23,0.00
2012-3-2,49.8,41.2,29.3,44.6,36.1,27.0,97,83,62,30.02,29.60,15,3,16,0.36
2012-3-3,57.1,48.4,41.9,45.0,33.8,21.6,98,63,27,29.73,29.49,25,3,25,0.00
2012-3-4,42.5,37.4,31.9,30.0,24.4,21.2,70,59,46,29.88,29.68,19,3,22,0.00
2012-3-5,42.2,33.3,27.9,29.5,22.0,15.9,81,64,47,30.46,29.87,20,3,23,0.00
2012-3-6,47.4,36.3,22.4,28.2,22.9,16.9,88,59,43,30.65,30.44,16,2,17,0.00
2012-3-7,65.8,51.4,32.7,45.3,34.2,23.8,71,53,35,30.50,30.27,17,3,19,0.00
2012-3-8,69.8,60.7,49.6,53.7,48.8,42.4,85,65,54,30.27,29.88,20,5,25,0.04
2012-3-9,53.6,45.2,36.1,47.8,28.4,19.0,84,53,37,30.36,29.99,26,7,28,0.00
2012-3-10,44.8,36.1,28.9,22.6,18.7,15.8,64,49,35,30.57,30.36,15,2,15,0.00
2012-3-11,63.2,47.7,30.7,38.8,28.0,18.0,64,47,35,30.51,30.31,8,1,11,0.00
2012-3-12,69.0,54.7,38.8,43.5,37.5,30.9,76,54,34,30.34,30.07,11,1,11,0.00
2012-3-13,78.8,66.3,56.3,58.7,52.1,42.2,85,62,42,30.07,29.92,19,2,20,0.00
2012-3-14,78.0,65.8,56.5,51.0,46.0,38.4,72,51,30,30.17,30.01,13,1,13,0.00
2012-3-15,79.3,62.5,46.7,60.4,49.6,42.4,89,65,40,30.18,30.05,16,1,16,0.00
2012-3-16,67.8,57.9,50.1,59.2,53.3,48.5,96,85,72,30.15,30.07,9,1,11,0.12
2012-3-17,75.5,60.8,46.7,61.5,54.3,45.9,99,81,55,30.26,30.14,10,1,11,0.00
2012-3-18,65.0,58.9,51.4,57.6,54.5,49.7,97,86,75,30.31,30.14,12,2,12,0.00
2012-3-19,74.0,63.6,54.7,62.2,58.5,52.7,97,84,62,30.16,30.07,8,1,10,0.55
2012-3-20,72.5,63.9,58.1,64.4,60.4,56.9,99,89,71,30.23,30.13,7,0,7,0.01
2012-3-21,65.3,60.6,56.8,60.9,58.4,55.4,98,92,84,30.31,30.20,7,1,9,0.00
2012-3-22,76.0,65.9,56.9,66.8,61.3,56.1,99,86,69,30.23,30.05,9,1,10,0.00
2012-3-23,80.5,67.9,54.1,65.8,58.7,53.1,99,75,44,30.07,29.90,12,1,12,0.00
2012-3-24,69.3,60.1,52.5,61.5,57.6,51.6,97,91,68,29.90,29.82,12,1,12,0.32
2012-3-25,61.7,53.8,47.7,55.8,51.1,46.9,98,91,77,29.84,29.73,11,3,13,0.02
2012-3-26,59.0,52.2,38.9,53.2,34.6,15.3,85,53,31,30.22,29.79,24,8,26,0.00
2012-3-27,53.9,41.5,30.9,27.1,19.5,14.6,52,42,28,30.36,30.13,12,2,14,0.00
2012-3-28,76.3,59.7,43.3,60.0,42.7,23.7,81,54,36,30.13,29.61,26,3,26,0.02
2012-3-29,67.5,54.9,43.1,44.6,39.3,34.2,72,56,38,30.01,29.67,26,6,26,0.00
2012-3-30,51.8,43.3,33.5,42.0,36.4,30.8,94,77,66,30.10,29.78,9,1,9,0.00
2012-3-31,58.7,49.8,44.5,52.2,45.8,40.3,95,86,77,29.88,29.71,16,2,16,0.01
2012-4-1,64.5,53.0,44.6,52.4,46.8,42.3,94,80,57,29.88,29.54,11,1,12,0.07
2012-4-2,60.8,52.6,44.3,52.3,37.3,28.9,97,59,35,29.92,29.55,20,6,21,0.05
2012-4-3,70.1,52.7,32.3,40.0,31.8,24.9,89,48,26,30.04,29.75,8,1,9,0.00
2012-4-4,74.5,59.6,46.5,54.7,42.5,29.2,85,57,26,29.76,29.54,21,3,21,0.00
2012-4-5,58.7,50.0,38.5,37.4,33.3,29.9,82,54,39,29.88,29.73,11,1,12,0.00
2012-4-6,60.4,48.4,34.4,33.7,27.3,20.5,70,46,25,30.09,29.88,18,4,21,0.00
2012-4-7,63.4,50.3,31.0,30.2,24.8,18.5,76,39,26,30.22,30.05,23,3,23,0.00
2012-4-8,70.5,53.6,34.4,41.0,32.7,24.0,75,47,28,30.09,29.81,23,4,23,0.00
2012-4-9,63.9,54.5,45.8,39.5,34.3,25.8,72,47,32,29.90,29.75,23,5,26,0.00
2012-4-10,60.2,48.6,39.0,39.1,32.7,26.2,90,58,33,29.89,29.70,22,4,25,0.00
2012-4-11,50.8,41.6,32.1,36.2,31.8,26.3,89,69,48,30.06,29.87,21,4,22,0.00
2012-4-12,41.8,40.6,39.8,36.0,34.6,33.3,83,79,74,30.06,30.05,10,1,11,0.00
2012-4-14,73.9,57.5,37.2,51.6,40.5,32.9,91,57,29,30.23,30.01,10,1,15,0.00
2012-4-15,81.8,66.9,54.1,61.4,56.2,51.4,97,71,45,30.04,29.93,10,1,13,0.03
2012-4-16,86.5,74.3,60.3,65.3,60.3,54.0,90,63,43,30.00,29.84,16,2,18,0.00
2012-4-17,77.3,64.2,50.6,57.2,45.4,37.4,76,51,35,30.20,29.94,17,4,18,0.00
2012-4-18,53.5,51.3,48.6,50.0,46.0,37.5,96,83,55,30.25,30.11,5,0,5,0.49
2012-4-19,68.7,55.8,47.3,56.0,50.1,46.3,98,83,51,30.12,29.97,7,0,7,0.01
2012-4-20,71.0,58.2,42.9,58.9,51.2,41.6,98,79,61,29.99,29.76,12,2,15,0.00
2012-4-21,78.3,61.5,51.3,64.1,55.7,49.9,96,82,54,29.79,29.59,18,2,18,0.53
2012-4-22,51.3,47.5,41.0,49.9,46.1,40.0,100,95,89,29.79,29.45,15,3,16,0.95
2012-4-23,44.8,40.5,36.0,40.7,37.2,33.2,96,89,69,29.52,29.34,20,6,22,0.50
2012-4-24,60.1,48.1,35.0,36.4,31.7,28.1,91,56,31,29.71,29.48,17,2,25,0.00
2012-4-25,68.3,52.8,37.9,43.2,36.1,32.7,92,58,28,29.84,29.70,15,2,16,0.00
2012-4-26,69.6,60.5,50.6,61.2,50.2,33.2,88,70,41,29.84,29.55,18,2,21,0.00
2012-4-27,58.6,51.1,42.9,47.5,34.7,30.4,72,54,38,30.18,29.74,21,6,22,0.00
2012-4-28,51.5,44.4,36.8,41.3,33.6,26.8,91,67,40,30.29,30.11,6,0,7,0.07
2012-4-29,71.4,53.3,37.1,45.7,39.3,32.7,97,65,27,30.25,30.09,9,1,9,0.07
2012-4-30,61.4,52.5,37.5,54.1,40.8,28.2,84,65,42,30.29,30.04,11,2,14,0.00
2012-5-1,83.3,68.7,56.4,66.7,57.9,52.5,97,71,43,30.04,29.92,15,2,16,0.04
2012-5-2,81.3,67.0,59.0,69.4,62.2,56.0,98,85,65,30.06,29.93,13,1,16,0.56
2012-5-3,86.2,68.5,55.5,73.2,63.2,54.4,98,85,60,30.16,29.94,11,1,13,0.08
2012-5-4,84.5,73.5,62.6,71.6,64.9,61.2,98,76,49,29.97,29.82,14,1,15,0.00
2012-5-5,80.0,70.1,59.8,68.2,63.8,58.7,99,82,60,29.95,29.83,9,0,9,0.00
2012-5-6,71.5,65.3,61.9,64.4,61.2,58.9,96,87,74,30.03,29.93,9,1,11,0.00
2012-5-7,67.3,63.1,59.3,60.0,57.1,47.3,94,81,58,30.03,29.93,16,3,16,0.00
2012-5-8,69.0,63.8,59.4,66.6,58.8,45.8,97,85,56,29.96,29.73,17,3,17,0.24
2012-5-9,72.3,64.0,56.4,64.8,59.8,54.9,99,87,65,29.76,29.63,18,1,19,0.04
2012-5-10,63.6,56.1,47.3,55.6,46.2,39.8,97,71,49,29.92,29.61,25,4,27,0.00
2012-5-11,72.2,58.4,40.9,46.4,41.0,36.3,91,55,34,30.17,29.92,16,2,17,0.00
2012-5-12,76.5,61.3,43.6,53.2,47.8,41.1,94,65,36,30.29,30.15,8,0,8,0.00
2012-5-13,79.6,66.7,54.9,62.9,57.5,51.2,94,74,51,30.17,30.04,9,0,9,0.00
2012-5-14,64.0,62.0,59.5,62.8,60.7,57.7,98,95,89,30.06,29.97,10,1,10,0.94
2012-5-15,76.9,68.4,62.9,67.5,64.1,61.4,99,87,67,29.97,29.87,9,1,9,0.17
2012-5-16,83.0,70.1,56.2,67.0,59.3,52.8,99,73,38,29.92,29.81,15,0,15,0.00
2012-5-17,73.5,63.2,52.6,57.4,47.0,40.3,77,57,36,30.10,29.91,12,2,13,0.00
2012-5-18,76.4,61.1,42.6,55.2,48.8,40.7,100,67,40,30.18,30.07,8,1,9,0.00
2012-5-19,82.3,66.3,49.7,60.6,53.8,46.5,92,67,42,30.17,30.06,7,0,8,0.00
2012-5-20,83.6,69.0,53.4,62.4,57.2,51.7,98,70,40,30.17,30.06,11,1,14,0.00
2012-5-21,68.8,66.6,64.7,67.0,64.4,60.2,98,93,78,30.07,29.88,9,0,10,1.07
2012-5-22,78.3,69.2,63.8,68.6,65.3,62.2,99,88,68,29.87,29.75,11,0,13,0.29
2012-5-23,81.0,68.4,61.8,69.4,64.9,61.2,99,89,64,29.93,29.81,8,0,11,0.26
2012-5-24,81.3,71.7,64.9,68.9,66.3,64.3,99,85,60,30.04,29.92,12,1,18,0.34
2012-5-25,84.5,75.1,66.0,72.7,69.3,65.1,99,83,62,30.09,30.03,9,1,9,0.00
2012-5-26,88.2,77.2,66.0,77.5,71.4,64.6,99,84,61,30.11,30.02,7,0,9,0.00
2012-5-27,87.0,76.1,65.5,74.8,70.0,62.7,98,83,61,30.16,29.99,29,1,35,0.42
2012-5-28,89.4,76.9,63.7,76.6,70.2,62.5,99,81,58,30.05,29.81,12,1,15,0.01
2012-5-29,89.2,75.3,67.7,76.2,70.5,66.7,100,87,59,29.88,29.67,23,1,26,2.07
2012-5-30,84.6,72.1,61.0,69.9,63.9,60.4,100,78,49,29.80,29.67,10,0,10,0.01
2012-5-31,80.0,70.4,59.6,62.3,58.0,52.7,95,68,42,29.86,29.70,10,1,11,0.00
2012-6-1,73.0,68.2,61.9,69.9,62.5,54.6,98,83,63,29.86,29.59,19,2,19,1.18
2012-6-2,72.0,62.4,51.0,61.3,53.0,48.5,99,74,48,29.81,29.68,14,2,15,0.01
2012-6-3,77.8,64.0,52.0,60.8,53.9,49.0,92,72,45,29.82,29.67,15,1,15,0.02
2012-6-4,69.2,62.7,54.1,58.2,53.9,51.4,98,75,54,29.75,29.62,16,3,18,0.02
2012-6-5,68.3,60.6,54.4,56.3,52.8,50.8,91,76,58,29.93,29.75,8,0,8,0.00
2012-6-6,74.5,61.9,48.6,58.3,52.3,47.3,98,74,45,29.99,29.91,7,0,8,0.00
2012-6-7,78.7,63.9,53.7,66.0,56.7,52.0,96,79,49,30.00,29.91,16,1,20,0.40
2012-6-8,82.6,68.0,52.5,61.4,56.7,51.1,98,71,41,30.01,29.88,14,2,14,0.00
2012-6-9,88.0,74.0,59.0,64.2,59.2,54.8,88,63,37,29.97,29.89,14,1,16,0.00
2012-6-10,88.8,76.0,60.4,67.6,63.1,57.6,93,67,43,30.07,29.97,7,0,8,0.00
2012-6-11,85.5,74.6,63.3,68.8,64.9,61.3,95,73,52,30.09,30.00,15,1,15,0.00
2012-6-12,81.2,72.6,67.8,75.2,69.2,64.8,98,90,76,30.01,29.76,17,1,17,0.96
2012-6-13,76.5,69.3,63.1,66.5,58.6,54.1,98,71,47,30.04,29.83,13,3,15,0.01
2012-6-14,79.7,68.3,55.4,65.5,59.7,53.0,96,75,56,30.18,30.04,9,1,9,0.00
2012-6-15,80.0,70.5,60.9,63.8,60.5,57.0,96,72,50,30.26,30.17,9,1,9,0.00
2012-6-16,78.5,68.5,56.3,62.7,58.2,52.9,93,71,53,30.30,30.15,10,1,11,0.00
2012-6-17,77.8,68.4,56.3,61.1,57.7,51.5,90,70,52,30.17,29.99,10,1,12,0.00
2012-6-18,67.7,64.4,61.3,64.0,61.1,58.3,96,89,78,30.07,29.98,13,1,13,0.05
2012-6-19,88.9,75.4,65.2,76.3,69.9,64.0,97,84,63,30.11,30.01,5,0,6,0.00
2012-6-20,93.3,82.0,70.4,76.6,72.8,68.7,96,76,51,30.12,29.96,11,0,11,0.00
2012-6-21,92.8,81.7,70.3,77.1,72.8,68.4,97,76,53,29.99,29.79,8,0,9,0.00
2012-6-22,89.5,77.0,69.9,77.2,72.1,66.9,97,86,58,29.84,29.72,24,0,24,0.25
2012-6-23,85.1,74.4,63.6,69.3,64.6,57.7,100,75,42,29.99,29.83,11,1,11,0.01
2012-6-24,85.8,74.4,60.6,70.8,64.9,59.5,98,75,48,30.00,29.84,7,0,7,0.00
2012-6-25,80.5,72.3,63.1,68.2,60.0,45.6,96,69,40,29.85,29.70,19,4,20,0.00
2012-6-26,76.9,66.1,53.0,55.5,50.8,45.3,80,59,43,29.88,29.77,17,3,18,0.00
2012-6-27,83.6,70.1,52.8,64.5,57.1,49.4,96,66,44,29.92,29.82,17,2,20,0.00
2012-6-28,91.0,77.0,60.0,68.9,63.4,56.3,92,65,41,29.89,29.70,11,1,11,0.00
2012-6-29,99.8,85.4,69.1,79.9,72.5,65.6,97,67,44,29.85,29.62,23,1,23,1.08
2012-6-30,90.5,78.1,67.5,78.7,71.3,67.2,100,82,56,29.83,29.68,8,0,12,0.03
2012-7-1,93.0,82.2,71.6,76.8,72.5,68.9,97,75,47,29.87,29.75,12,1,14,0.00
2012-7-2,90.1,78.8,67.6,73.0,69.4,66.2,99,75,47,29.95,29.86,10,1,11,0.18
2012-7-3,90.8,76.8,66.8,74.4,69.4,65.4,98,80,49,29.95,29.84,21,0,23,0.16
2012-7-4,94.7,79.0,67.5,82.5,72.1,65.8,98,81,58,29.91,29.76,20,1,20,0.15
2012-7-5,94.1,82.2,69.0,76.8,71.3,66.3,95,71,53,29.85,29.76,15,2,15,0.00
2012-7-6,95.0,83.7,72.5,78.7,73.9,70.4,96,74,51,29.92,29.83,7,0,8,0.00
2012-7-7,99.1,86.2,74.1,80.0,76.3,72.2,95,74,50,29.89,29.77,11,1,11,0.00
2012-7-8,92.5,81.6,75.0,80.2,76.1,73.0,95,84,63,29.84,29.77,11,1,11,0.06
2012-7-9,84.5,77.2,71.9,74.4,71.0,66.6,99,83,57,29.93,29.81,7,0,7,0.39
2012-7-10,86.8,76.5,67.1,74.0,68.6,65.6,98,78,53,30.01,29.92,9,0,10,0.00
2012-7-11,86.5,76.6,66.9,73.6,68.4,63.5,97,77,54,30.11,30.00,11,0,11,0.00
2012-7-12,84.7,75.4,65.0,69.8,65.9,61.2,97,74,49,30.15,30.11,8,0,9,0.00
2012-7-13,81.6,74.4,68.1,70.3,67.2,64.9,94,79,62,30.19,30.13,6,0,6,0.00
2012-7-14,82.7,74.0,67.2,74.0,69.8,66.0,99,87,73,30.18,30.07,7,0,8,0.07
2012-7-15,91.8,79.4,73.1,76.7,73.3,71.5,95,83,55,30.10,29.93,9,0,11,0.00
2012-7-16,91.8,80.1,69.3,78.8,72.5,68.1,98,79,57,29.98,29.80,12,1,13,0.00
2012-7-17,97.5,82.7,68.4,76.6,71.7,66.4,98,73,37,29.89,29.75,9,0,10,0.00
2012-7-18,95.9,79.0,71.8,80.2,73.0,69.6,99,83,57,29.89,29.77,15,0,22,1.02
2012-7-19,89.6,78.0,70.8,77.7,72.9,70.0,100,86,59,29.93,29.79,19,1,22,1.39
2012-7-20,79.2,72.4,66.3,75.0,70.8,64.8,100,95,85,29.97,29.81,8,0,8,0.41
2012-7-21,70.6,66.6,63.2,67.8,65.2,62.6,100,95,87,30.11,29.95,4,0,4,0.31
2012-7-22,81.5,72.3,66.4,73.0,68.8,65.3,99,89,70,30.15,30.06,6,0,7,0.00
2012-7-23,85.8,77.7,68.0,77.3,72.2,67.0,99,84,64,30.08,29.86,5,0,7,0.00
2012-7-24,85.4,78.1,71.2,78.8,73.3,67.6,96,85,75,29.87,29.66,12,1,12,0.00
2012-7-25,84.3,74.4,62.7,67.6,62.8,57.2,97,70,43,29.94,29.78,7,0,8,0.00
2012-7-26,96.3,78.7,66.8,83.0,71.2,63.3,97,80,51,29.81,29.60,13,1,19,0.32
2012-7-27,86.7,78.2,71.2,76.4,73.2,70.6,99,86,68,29.85,29.68,10,1,13,0.03
2012-7-28,88.5,77.1,68.3,75.2,70.1,65.5,97,80,57,29.92,29.82,10,1,12,0.00
2012-7-29,86.7,75.7,64.7,71.3,67.5,63.1,98,77,56,29.99,29.90,10,1,11,0.00
2012-7-30,87.4,75.5,63.8,74.0,69.0,62.9,99,82,56,30.04,29.94,10,0,13,0.00
2012-7-31,86.4,76.7,69.4,74.6,70.5,66.9,96,82,62,29.99,29.82,10,1,10,0.03
2012-8-1,85.7,73.0,65.6,74.9,68.9,64.4,98,88,65,29.89,29.76,18,0,18,0.03
2012-8-2,89.8,77.3,66.0,76.8,70.6,65.4,100,82,56,29.89,29.81,6,0,6,0.00
2012-8-3,90.4,79.4,69.2,79.7,73.2,68.5,99,83,57,30.02,29.86,12,0,12,0.00
2012-8-4,91.5,82.2,72.9,78.2,73.7,70.4,95,77,57,30.10,30.01,10,1,14,0.00
2012-8-5,90.7,79.2,0.0,78.2,72.2,0.0,96,78,63,30.08,29.96,19,1,21,0.21
2012-8-6,88.2,78.1,70.1,75.1,71.2,65.2,99,82,48,30.04,29.93,7,0,8,0.01
2012-8-7,85.8,75.0,64.4,72.8,68.0,63.6,99,81,55,29.99,29.90,5,0,6,0.00
2012-8-8,90.0,78.3,68.1,74.0,69.7,65.0,98,78,49,29.97,29.87,5,0,6,0.00
2012-8-9,90.1,75.6,67.7,75.6,69.3,63.5,99,82,57,29.92,29.78,22,1,25,0.00
2012-8-10,83.4,73.2,67.9,74.7,69.5,66.5,99,89,69,29.82,29.65,13,1,17,0.36
2012-8-11,85.5,75.6,67.9,69.0,66.0,61.2,97,74,49,29.90,29.72,9,1,11,0.00
2012-8-12,82.9,72.3,61.5,66.0,62.9,58.1,96,74,51,29.98,29.89,12,1,12,0.00
2012-8-13,85.3,72.3,60.0,67.1,63.3,59.2,99,76,48,30.03,29.90,7,0,8,0.00
2012-8-14,85.0,75.1,68.1,73.7,70.0,65.7,99,85,62,29.91,29.76,5,0,8,0.32
2012-8-15,80.8,71.9,64.0,69.9,66.8,63.1,99,85,64,29.91,29.81,9,1,9,0.01
2012-8-16,86.0,73.0,60.5,68.6,64.3,59.7,99,77,49,29.98,29.84,8,0,8,0.00
2012-8-17,87.8,72.4,65.2,70.4,66.7,62.5,98,84,50,29.88,29.74,17,1,18,0.40
2012-8-18,81.1,71.3,62.1,67.9,63.1,57.0,99,78,48,29.91,29.83,9,1,10,0.01
2012-8-19,71.3,65.0,59.8,67.4,62.1,58.2,96,91,78,29.94,29.86,10,0,10,0.15
2012-8-20,78.9,67.0,62.3,67.8,64.0,61.4,99,91,66,29.94,29.80,17,0,18,0.42
2012-8-21,81.6,69.2,61.1,67.6,62.4,57.2,99,82,44,30.09,29.94,13,0,15,0.00
2012-8-22,84.4,70.7,59.0,68.0,62.7,57.4,98,78,52,30.13,30.04,7,0,9,0.00
2012-8-23,86.7,71.9,59.4,69.1,63.3,58.5,99,77,44,30.15,30.06,6,0,6,0.00
2012-8-24,84.8,73.2,63.1,71.4,66.7,61.9,98,81,54,30.15,30.08,6,0,6,0.00
2012-8-25,79.3,72.6,67.5,70.7,66.3,62.0,97,82,58,30.17,30.11,9,0,9,0.01
2012-8-26,77.3,71.3,67.5,74.3,69.1,66.0,98,93,85,30.20,30.11,20,1,20,2.26
2012-8-27,86.7,75.5,65.2,74.0,69.6,64.6,99,83,58,30.12,29.90,9,0,9,0.00
2012-8-28,85.8,76.8,66.5,71.8,67.6,63.1,96,75,50,29.93,29.86,14,2,16,0.03
2012-8-29,82.5,70.5,59.5,67.9,62.8,58.6,99,79,48,30.01,29.91,8,0,9,0.00
2012-8-30,84.7,71.0,59.0,67.4,62.6,58.2,98,78,48,30.10,29.99,6,0,6,0.00
2012-8-31,92.5,76.5,59.8,73.2,66.1,58.8,99,74,41,30.09,29.95,7,1,10,0.00
2012-9-1,89.9,77.3,70.8,77.4,70.9,67.3,93,81,63,30.04,29.94,9,0,10,0.00
2012-9-2,80.0,74.0,68.1,74.2,71.2,67.2,99,91,81,30.01,29.92,6,0,7,0.07
2012-9-3,84.2,76.6,71.7,75.6,72.8,70.7,99,89,71,30.01,29.92,11,1,11,0.00
2012-9-4,83.6,77.0,71.5,76.3,73.2,70.0,97,88,77,29.97,29.79,11,1,11,0.00
2012-9-5,89.5,79.8,73.0,76.5,73.1,71.1,96,81,58,29.81,29.73,9,0,10,0.00
2012-9-6,85.4,76.5,70.7,77.0,72.3,69.2,96,87,73,29.87,29.79,6,0,6,0.00
2012-9-7,88.5,75.7,68.6,75.2,70.7,67.3,97,85,60,29.92,29.75,11,0,11,0.00
2012-9-8,82.9,70.5,61.4,73.6,66.8,58.7,97,88,72,29.83,29.58,21,1,24,0.94
2012-9-9,76.5,63.8,53.1,62.5,55.8,51.1,98,78,43,29.96,29.81,16,1,18,0.00
2012-9-10,72.0,61.2,49.9,57.2,51.6,48.2,97,73,47,30.16,29.96,17,2,17,0.00
2012-9-11,74.8,59.6,45.9,55.4,50.5,44.8,98,75,44,30.31,30.16,7,0,7,0.00
2012-9-12,79.0,62.6,47.2,62.3,54.8,46.1,98,78,49,30.35,30.25,7,0,7,0.00
2012-9-13,79.8,65.8,52.6,63.8,57.3,50.9,97,76,48,30.35,30.22,7,0,9,0.00
2012-9-14,80.8,65.6,51.5,63.0,57.7,50.4,98,78,49,30.24,30.07,11,0,13,0.00
2012-9-15,75.2,65.0,54.9,62.5,54.3,50.2,92,70,44,30.23,30.09,19,3,19,0.00
2012-9-16,71.7,59.9,50.1,56.5,52.6,48.7,97,79,54,30.17,30.04,7,0,10,0.00
2012-9-17,75.2,61.3,46.8,64.5,57.0,45.6,100,87,66,30.09,29.92,10,1,12,0.00
2012-9-18,71.3,67.7,61.3,70.0,66.7,56.1,99,97,83,29.92,29.52,24,2,26,2.91
2012-9-19,67.7,59.3,47.9,56.0,49.9,44.2,92,73,45,30.14,29.82,14,2,14,0.00
2012-9-20,73.0,57.6,43.1,58.0,50.9,41.8,98,80,54,30.16,30.02,12,1,12,0.00
2012-9-21,78.8,66.3,52.8,64.7,59.8,51.7,98,81,58,30.03,29.88,10,1,10,0.00
2012-9-22,82.8,70.4,61.0,67.0,61.4,49.3,95,75,50,29.94,29.73,13,1,20,0.00
2012-9-23,66.3,57.0,48.3,49.3,46.0,43.5,91,68,46,30.14,29.94,17,2,18,0.00
2012-9-24,66.9,55.0,46.3,50.0,45.5,40.4,98,73,41,30.23,30.09,11,1,12,0.00
2012-9-25,72.8,59.2,41.6,55.0,48.9,39.2,97,70,46,30.17,30.01,10,1,10,0.00
2012-9-26,80.0,67.0,57.8,67.1,60.6,54.2,96,81,59,30.09,30.01,9,1,9,0.05
2012-9-27,77.0,68.1,61.6,67.1,64.1,60.7,99,88,69,30.14,30.02,11,0,13,0.32
2012-9-28,73.5,65.7,58.8,67.6,59.8,52.1,99,82,58,30.05,29.96,11,2,12,0.14
2012-9-29,66.9,57.5,49.0,53.3,50.5,46.9,96,79,54,30.01,29.90,13,1,13,0.00
2012-9-30,69.2,54.8,48.0,57.1,51.0,46.7,97,88,56,29.90,29.78,10,1,15,0.17
2012-10-1,67.5,55.3,44.3,57.5,51.1,43.5,99,87,55,29.95,29.88,10,0,10,0.02
2012-10-2,65.4,61.4,58.0,65.1,60.8,56.9,100,98,96,29.93,29.86,4,0,5,0.79
2012-10-3,77.5,67.9,62.4,71.8,66.2,62.3,100,95,75,30.08,29.91,4,0,4,0.01
2012-10-4,78.1,68.5,57.7,70.1,63.6,55.6,100,86,54,30.12,30.05,11,1,12,0.02
2012-10-5,79.5,65.5,55.0,63.6,58.0,53.2,95,79,52,30.11,29.89,7,0,9,0.00
2012-10-6,70.9,58.4,46.8,63.6,51.9,43.0,94,80,58,30.05,29.79,24,2,25,0.00
2012-10-7,52.3,48.2,42.7,47.3,44.8,40.8,94,88,75,30.16,30.00,9,0,9,0.04
2012-10-8,46.5,42.2,37.2,44.8,40.8,36.2,98,95,88,30.29,30.16,5,0,6,0.08
2012-10-9,62.2,50.4,42.6,51.5,46.3,41.8,98,87,66,30.22,30.03,6,0,6,0.00
2012-10-10,68.7,53.2,43.8,53.2,46.6,41.0,98,80,51,30.07,29.83,18,2,22,0.00
2012-10-11,60.2,49.7,40.6,41.1,37.0,32.9,84,63,44,30.27,30.07,13,2,15,0.00
2012-10-12,58.8,45.8,35.3,45.4,37.7,31.9,97,75,48,30.42,30.12,18,2,19,0.00
2012-10-13,57.6,44.4,29.5,41.5,35.4,27.9,96,73,51,30.51,30.21,12,1,14,0.00
2012-10-14,72.8,59.2,49.2,58.6,50.4,41.6,86,73,59,30.21,29.84,13,1,14,0.00
2012-10-15,67.5,62.5,54.8,62.8,56.3,46.7,94,81,62,29.84,29.64,16,2,18,0.13
2012-10-16,61.7,53.2,40.7,47.1,43.6,38.1,91,71,51,29.91,29.80,15,2,17,0.01
2012-10-17,66.4,50.8,35.0,51.2,44.0,33.8,98,79,54,29.99,29.87,10,1,11,0.00
2012-10-18,66.7,58.9,50.1,58.4,53.3,47.3,97,82,69,29.90,29.76,17,2,18,1.02
2012-10-19,65.8,58.4,51.3,62.0,57.1,49.9,100,96,84,29.79,29.57,6,0,6,0.11
2012-10-20,62.7,53.6,45.5,50.2,44.2,40.7,96,73,47,29.91,29.63,16,2,18,0.00
2012-10-21,63.2,51.2,39.4,46.3,41.5,37.5,96,71,49,30.12,29.91,16,2,17,0.00
2012-10-22,70.5,52.2,37.1,51.8,44.3,35.3,96,77,49,30.20,30.07,6,0,6,0.00
2012-10-23,74.7,59.4,48.9,62.1,53.7,46.1,93,82,60,30.14,29.99,14,0,14,0.00
2012-10-24,79.0,64.2,54.0,62.5,56.5,52.9,98,78,47,30.10,30.02,8,0,9,0.00
2012-10-25,67.5,61.4,55.6,61.7,58.0,53.3,96,89,80,30.17,30.07,11,1,12,0.00
2012-10-26,66.3,62.5,59.5,60.7,59.0,56.8,94,88,78,30.15,30.01,8,0,9,0.00
2012-10-27,67.7,62.2,57.6,59.0,55.8,51.2,90,80,64,30.02,29.84,10,1,11,0.00
2012-10-28,58.1,55.7,50.5,54.4,51.8,49.7,97,87,75,29.85,29.62,13,3,16,0.32
2012-10-29,50.5,47.5,43.4,50.0,46.5,41.5,100,96,91,29.62,28.67,32,8,33,4.21
2012-10-30,44.0,41.3,39.1,41.9,39.8,38.0,96,94,91,29.44,28.66,29,4,33,0.89
2012-10-31,48.1,43.1,38.4,40.5,38.0,36.6,97,83,67,29.64,29.43,13,1,15,0.04
2012-11-1,49.3,45.8,43.0,40.1,37.2,35.9,78,72,65,29.73,29.62,15,1,15,0.00
2012-11-2,48.1,43.4,34.5,37.0,34.4,30.8,90,71,57,29.92,29.71,21,4,24,0.00
2012-11-3,45.1,43.0,41.0,35.0,33.1,31.1,74,68,63,30.06,29.91,18,4,19,0.00
2012-11-4,48.4,41.1,34.4,34.0,30.9,28.9,81,67,52,30.07,30.00,15,2,16,0.00
2012-11-5,47.6,39.8,29.0,33.0,28.7,24.8,85,65,52,30.17,30.03,16,3,16,0.00
2012-11-6,44.6,34.1,24.1,31.2,26.7,22.1,95,75,56,30.19,30.01,9,0,11,0.00
2012-11-7,41.5,37.1,32.8,30.2,28.3,25.2,83,71,58,30.02,29.90,12,2,13,0.00
2012-11-8,52.2,42.9,35.6,31.9,24.7,20.2,69,49,30,30.08,29.92,21,5,23,0.00
2012-11-9,56.3,45.1,38.7,38.8,34.7,30.9,82,68,50,30.22,30.07,17,2,17,0.00
2012-11-10,63.2,47.6,32.4,44.6,37.5,30.6,96,71,42,30.33,30.19,7,0,7,0.00
2012-11-11,67.0,52.7,34.8,48.2,42.0,32.7,96,69,48,30.43,30.30,10,1,11,0.00
2012-11-12,67.0,60.7,47.6,59.2,53.5,45.0,92,78,61,30.34,30.07,25,6,28,0.31
2012-11-13,47.5,40.9,29.3,45.0,32.6,24.1,95,73,52,30.49,30.21,19,4,20,0.50
2012-11-14,45.4,33.8,24.9,32.1,26.8,22.9,95,77,53,30.57,30.43,9,0,10,0.00
2012-11-15,44.0,34.5,27.4,36.6,30.8,25.0,95,87,72,30.43,30.30,5,0,5,0.00
2012-11-16,52.7,39.4,29.4,36.7,31.9,28.0,97,77,45,30.45,30.30,12,0,12,0.00
2012-11-17,56.0,39.6,25.6,37.2,30.1,23.9,95,72,42,30.60,30.44,8,0,9,0.00
2012-11-18,53.6,41.3,28.5,41.3,34.3,26.2,94,77,52,30.61,30.48,8,0,8,0.00
2012-11-19,49.7,42.2,32.5,40.3,36.8,30.6,93,81,68,30.49,30.22,9,0,9,0.00
2012-11-20,49.4,38.8,30.1,40.8,35.2,29.1,97,88,70,30.22,30.08,4,0,5,0.00
2012-11-21,53.3,38.1,26.6,41.6,33.3,25.4,100,84,54,30.24,30.12,5,0,6,0.00
2012-11-22,56.0,39.0,26.7,40.1,31.9,25.5,96,78,45,30.29,30.10,5,0,6,0.00
2012-11-23,63.5,45.0,27.7,47.4,34.3,26.2,95,69,41,30.11,29.75,26,3,26,0.00
2012-11-24,41.2,36.1,32.9,27.7,22.8,20.2,63,58,52,30.03,29.86,28,7,28,0.00
2012-11-25,41.9,34.5,27.0,25.0,22.1,19.9,76,60,48,30.05,29.89,16,1,16,0.00
2012-11-26,52.0,37.0,24.4,34.3,27.9,20.0,89,71,48,30.19,29.97,7,0,7,0.00
2012-11-27,41.6,37.3,34.0,38.5,34.5,31.4,97,90,70,30.25,30.15,10,1,12,0.28
2012-11-28,45.3,37.4,31.9,33.2,26.9,22.7,86,67,45,30.36,30.22,14,1,15,0.00
2012-11-29,48.4,36.2,26.2,31.3,25.5,21.3,86,67,44,30.44,30.29,9,1,12,0.00
2012-11-30,54.0,38.0,24.4,34.5,28.3,21.6,93,70,40,30.35,30.26,7,0,7,0.00
2012-12-1,49.8,38.7,30.0,41.0,33.7,27.0,94,83,68,30.43,30.31,7,0,9,0.00
2012-12-2,56.0,42.4,29.6,46.7,38.5,28.5,98,87,68,30.37,30.09,7,0,8,0.00
2012-12-3,66.3,56.6,45.1,56.4,50.9,42.7,97,82,69,30.23,30.11,7,0,8,0.00
2012-12-4,72.5,61.4,53.0,57.8,53.5,50.5,92,76,55,30.19,29.94,12,1,12,0.00
2012-12-5,62.9,49.5,34.4,52.6,36.8,23.8,76,62,47,30.31,29.93,20,6,25,0.00
2012-12-6,42.8,34.3,24.2,28.5,24.9,20.6,90,69,55,30.37,30.19,11,1,11,0.00
2012-12-7,45.2,39.2,36.2,40.8,36.0,28.0,97,88,70,30.19,29.94,9,1,9,0.13
2012-12-8,54.3,44.1,36.9,48.7,42.2,36.0,98,93,80,30.01,29.85,5,0,5,0.05
2012-12-9,48.2,46.1,44.7,47.1,45.6,43.9,99,98,96,30.16,29.93,10,0,10,0.40
2012-12-10,53.9,50.2,46.1,53.5,49.7,41.4,100,98,83,29.93,29.53,18,1,21,0.02
2012-12-11,46.4,41.5,32.2,41.4,34.3,26.5,87,76,64,30.20,29.70,16,3,19,0.00
2012-12-12,40.3,34.3,29.7,31.7,28.6,26.6,91,80,65,30.44,30.20,9,0,11,0.00
2012-12-13,44.8,32.1,23.1,31.5,26.1,21.6,95,80,51,30.48,30.32,5,0,5,0.00
2012-12-14,51.9,34.8,21.7,34.9,27.1,20.0,95,76,46,30.33,30.19,6,0,7,0.00
2012-12-15,51.9,40.1,28.5,36.6,31.2,25.7,92,72,50,30.28,30.07,11,1,11,0.00
2012-12-16,47.6,45.1,42.5,42.9,40.3,34.8,94,84,65,30.09,29.81,10,1,12,0.00
2012-12-17,50.4,45.3,38.6,49.9,44.2,37.6,98,96,92,29.83,29.50,12,0,13,0.25
2012-12-18,55.4,45.8,37.6,49.2,40.6,30.5,99,83,62,29.80,29.49,19,3,25,0.00
2012-12-19,50.1,41.9,32.6,40.0,35.0,28.9,90,77,65,30.16,29.77,14,1,17,0.00
2012-12-20,46.6,39.4,33.7,45.4,35.4,30.6,96,86,70,30.19,29.35,17,2,17,0.25
2012-12-21,48.0,38.9,35.9,46.9,30.8,24.8,97,73,63,29.54,29.30,24,4,26,0.31
2012-12-22,39.4,35.8,30.4,25.4,23.8,21.8,70,62,55,30.02,29.53,36,10,36,0.00
2012-12-23,47.4,34.2,24.6,27.2,22.7,19.4,82,64,42,30.04,29.86,12,1,12,0.00
2012-12-24,36.5,30.9,25.3,31.1,27.4,21.8,96,87,71,30.06,29.88,6,0,7,0.00
2012-12-25,42.4,34.9,31.7,37.6,33.1,31.0,98,93,82,30.24,29.89,7,0,8,0.33
2012-12-26,33.9,31.5,29.0,33.3,29.6,26.4,98,93,81,30.23,29.47,12,0,12,0.00
2012-12-27,37.0,34.5,32.6,32.8,29.2,26.9,98,81,69,30.01,29.47,28,6,28,0.49
2012-12-28,38.9,34.1,28.5,28.6,26.6,24.7,89,74,61,30.14,30.00,12,2,15,0.21
2012-12-29,39.2,34.4,29.7,36.0,30.6,26.9,95,86,71,30.01,29.56,25,3,26,0.28
2012-12-30,36.7,33.5,26.2,28.1,23.4,18.9,74,66,58,30.31,29.81,29,7,29,0.00
2012-12-31,38.1,30.0,22.7,28.3,22.5,17.8,82,74,66,30.30,29.97,10,1,10,0.00
2013-1-1,41.3,38.5,34.4,31.2,29.9,26.0,79,71,64,30.02,29.89,10,1,11,0.01